sensor_id;sensor_type;location;lat;lon;timestamp;temperature;humidity
21163;DHT22;10739;52.198;20.908;2024-03-22T00:02:03;8.20;99.90
21163;DHT22;10739;52.198;20.908;2024-03-22T00:04:29;8.20;99.90
21163;DHT22;10739;52.198;20.908;2024-03-22T00:06:55;8.20;99.90
21163;DHT22;10739;52.198;20.908;2024-03-22T00:09:21;8.20;99.90
21163;DHT22;10739;52.198;20.908;2024-03-22T00:11:48;8.20;99.90
21163;DHT22;10739;52.198;20.908;2024-03-22T00:14:14;8.20;99.90
21163;DHT22;10739;52.198;20.908;2024-03-22T00:16:40;8.20;99.90
21163;DHT22;10739;52.198;20.908;2024-03-22T00:19:06;8.20;99.90
21163;DHT22;10739;52.198;20.908;2024-03-22T00:21:32;8.20;99.90
21163;DHT22;10739;52.198;20.908;2024-03-22T00:23:59;8.30;99.90
21163;DHT22;10739;52.198;20.908;2024-03-22T00:26:37;8.30;99.90
21163;DHT22;10739;52.198;20.908;2024-03-22T00:29:04;8.30;99.90
21163;DHT22;10739;52.198;20.908;2024-03-22T00:31:31;8.30;99.90
21163;DHT22;10739;52.198;20.908;2024-03-22T00:33:58;8.30;99.90
21163;DHT22;10739;52.198;20.908;2024-03-22T00:36:24;8.30;99.90
21163;DHT22;10739;52.198;20.908;2024-03-22T00:38:50;8.30;99.90
21163;DHT22;10739;52.198;20.908;2024-03-22T00:41:16;8.30;99.90
21163;DHT22;10739;52.198;20.908;2024-03-22T00:43:42;8.30;99.90
21163;DHT22;10739;52.198;20.908;2024-03-22T00:46:09;8.30;99.90
21163;DHT22;10739;52.198;20.908;2024-03-22T00:48:35;8.30;99.90
21163;DHT22;10739;52.198;20.908;2024-03-22T00:51:02;8.30;99.90
21163;DHT22;10739;52.198;20.908;2024-03-22T00:53:29;8.30;99.90
21163;DHT22;10739;52.198;20.908;2024-03-22T00:55:56;8.30;99.90
21163;DHT22;10739;52.198;20.908;2024-03-22T00:58:28;8.30;99.90
21163;DHT22;10739;52.198;20.908;2024-03-22T01:00:55;8.40;99.90
21163;DHT22;10739;52.198;20.908;2024-03-22T01:03:22;8.30;99.90
21163;DHT22;10739;52.198;20.908;2024-03-22T01:05:48;8.30;99.90
21163;DHT22;10739;52.198;20.908;2024-03-22T01:08:14;8.30;99.90
21163;DHT22;10739;52.198;20.908;2024-03-22T01:10:40;8.30;99.90
21163;DHT22;10739;52.198;20.908;2024-03-22T01:13:07;8.30;99.90
21163;DHT22;10739;52.198;20.908;2024-03-22T01:15:34;8.30;99.90
21163;DHT22;10739;52.198;20.908;2024-03-22T01:18:00;8.30;99.90
21163;DHT22;10739;52.198;20.908;2024-03-22T01:20:26;8.30;99.90
21163;DHT22;10739;52.198;20.908;2024-03-22T01:22:52;8.30;99.90
21163;DHT22;10739;52.198;20.908;2024-03-22T01:25:18;8.30;99.90
21163;DHT22;10739;52.198;20.908;2024-03-22T01:27:44;8.30;99.90
21163;DHT22;10739;52.198;20.908;2024-03-22T01:30:10;8.30;99.90
21163;DHT22;10739;52.198;20.908;2024-03-22T01:32:37;8.30;99.90
21163;DHT22;10739;52.198;20.908;2024-03-22T01:35:04;8.40;99.90
21163;DHT22;10739;52.198;20.908;2024-03-22T01:37:30;8.30;99.90
21163;DHT22;10739;52.198;20.908;2024-03-22T01:39:56;8.30;99.90
21163;DHT22;10739;52.198;20.908;2024-03-22T01:42:23;8.30;99.90
21163;DHT22;10739;52.198;20.908;2024-03-22T01:44:49;8.30;99.90
21163;DHT22;10739;52.198;20.908;2024-03-22T01:47:16;8.40;99.90
21163;DHT22;10739;52.198;20.908;2024-03-22T01:49:43;8.40;99.90
21163;DHT22;10739;52.198;20.908;2024-03-22T01:52:10;8.40;99.90
21163;DHT22;10739;52.198;20.908;2024-03-22T01:54:36;8.40;99.90
21163;DHT22;10739;52.198;20.908;2024-03-22T01:57:02;8.40;99.90
21163;DHT22;10739;52.198;20.908;2024-03-22T01:59:32;8.40;99.90
21163;DHT22;10739;52.198;20.908;2024-03-22T02:01:59;8.50;99.90
21163;DHT22;10739;52.198;20.908;2024-03-22T02:04:25;8.50;99.90
21163;DHT22;10739;52.198;20.908;2024-03-22T02:06:51;8.40;99.90
21163;DHT22;10739;52.198;20.908;2024-03-22T02:09:18;8.50;99.90
21163;DHT22;10739;52.198;20.908;2024-03-22T02:11:47;8.40;99.90
21163;DHT22;10739;52.198;20.908;2024-03-22T02:14:13;8.40;99.90
21163;DHT22;10739;52.198;20.908;2024-03-22T02:16:40;8.40;99.90
21163;DHT22;10739;52.198;20.908;2024-03-22T02:19:07;8.50;99.90
21163;DHT22;10739;52.198;20.908;2024-03-22T02:21:34;8.50;99.90
21163;DHT22;10739;52.198;20.908;2024-03-22T02:24:00;8.50;99.90
21163;DHT22;10739;52.198;20.908;2024-03-22T02:26:26;8.50;99.90
21163;DHT22;10739;52.198;20.908;2024-03-22T02:28:53;8.50;99.90
21163;DHT22;10739;52.198;20.908;2024-03-22T02:31:19;8.60;99.90
21163;DHT22;10739;52.198;20.908;2024-03-22T02:33:46;8.60;99.90
21163;DHT22;10739;52.198;20.908;2024-03-22T02:36:12;8.50;99.90
21163;DHT22;10739;52.198;20.908;2024-03-22T02:38:38;8.50;99.90
21163;DHT22;10739;52.198;20.908;2024-03-22T02:41:04;8.40;99.90
21163;DHT22;10739;52.198;20.908;2024-03-22T02:43:30;8.40;99.90
21163;DHT22;10739;52.198;20.908;2024-03-22T02:45:56;8.50;99.90
21163;DHT22;10739;52.198;20.908;2024-03-22T02:48:22;8.50;99.90
21163;DHT22;10739;52.198;20.908;2024-03-22T02:50:48;8.50;99.90
21163;DHT22;10739;52.198;20.908;2024-03-22T02:53:14;8.50;99.90
21163;DHT22;10739;52.198;20.908;2024-03-22T02:55:41;8.50;99.90
21163;DHT22;10739;52.198;20.908;2024-03-22T02:58:07;8.50;99.90
21163;DHT22;10739;52.198;20.908;2024-03-22T03:00:38;8.50;99.90
21163;DHT22;10739;52.198;20.908;2024-03-22T03:03:05;8.50;99.90
21163;DHT22;10739;52.198;20.908;2024-03-22T03:05:32;8.50;99.90
21163;DHT22;10739;52.198;20.908;2024-03-22T03:07:58;8.50;99.90
21163;DHT22;10739;52.198;20.908;2024-03-22T03:10:24;8.50;99.90
21163;DHT22;10739;52.198;20.908;2024-03-22T03:12:53;8.50;99.90
21163;DHT22;10739;52.198;20.908;2024-03-22T03:15:20;8.40;99.90
21163;DHT22;10739;52.198;20.908;2024-03-22T03:17:46;8.40;99.90
21163;DHT22;10739;52.198;20.908;2024-03-22T03:20:12;8.40;99.90
21163;DHT22;10739;52.198;20.908;2024-03-22T03:22:40;8.40;99.90
21163;DHT22;10739;52.198;20.908;2024-03-22T03:25:06;8.40;99.90
21163;DHT22;10739;52.198;20.908;2024-03-22T03:27:33;8.40;99.90
21163;DHT22;10739;52.198;20.908;2024-03-22T03:30:00;8.50;99.90
21163;DHT22;10739;52.198;20.908;2024-03-22T03:32:27;8.40;99.90
21163;DHT22;10739;52.198;20.908;2024-03-22T03:34:54;8.40;99.90
21163;DHT22;10739;52.198;20.908;2024-03-22T03:37:20;8.40;99.90
21163;DHT22;10739;52.198;20.908;2024-03-22T03:39:46;8.30;99.90
21163;DHT22;10739;52.198;20.908;2024-03-22T03:42:12;8.30;99.90
21163;DHT22;10739;52.198;20.908;2024-03-22T03:44:38;8.30;99.90
21163;DHT22;10739;52.198;20.908;2024-03-22T03:47:05;8.20;99.90
21163;DHT22;10739;52.198;20.908;2024-03-22T03:49:31;8.20;99.90
21163;DHT22;10739;52.198;20.908;2024-03-22T03:51:57;8.20;99.90
21163;DHT22;10739;52.198;20.908;2024-03-22T03:54:23;8.20;99.90
21163;DHT22;10739;52.198;20.908;2024-03-22T03:56:49;8.10;99.90
21163;DHT22;10739;52.198;20.908;2024-03-22T03:59:15;8.10;99.90
21163;DHT22;10739;52.198;20.908;2024-03-22T04:01:41;8.00;99.90
21163;DHT22;10739;52.198;20.908;2024-03-22T04:04:07;8.00;99.90
21163;DHT22;10739;52.198;20.908;2024-03-22T04:06:33;7.90;99.90
21163;DHT22;10739;52.198;20.908;2024-03-22T04:09:00;7.90;99.90
21163;DHT22;10739;52.198;20.908;2024-03-22T04:11:26;7.80;99.90
21163;DHT22;10739;52.198;20.908;2024-03-22T04:13:52;7.80;99.90
21163;DHT22;10739;52.198;20.908;2024-03-22T04:16:18;7.70;99.90
21163;DHT22;10739;52.198;20.908;2024-03-22T04:18:44;7.70;99.90
21163;DHT22;10739;52.198;20.908;2024-03-22T04:21:11;7.50;99.90
21163;DHT22;10739;52.198;20.908;2024-03-22T04:23:37;7.40;99.90
21163;DHT22;10739;52.198;20.908;2024-03-22T04:26:03;7.30;99.90
21163;DHT22;10739;52.198;20.908;2024-03-22T04:28:30;7.30;99.90
21163;DHT22;10739;52.198;20.908;2024-03-22T04:31:02;7.20;99.90
21163;DHT22;10739;52.198;20.908;2024-03-22T04:33:31;7.20;99.90
21163;DHT22;10739;52.198;20.908;2024-03-22T04:35:59;7.20;99.90
21163;DHT22;10739;52.198;20.908;2024-03-22T04:38:29;7.20;99.90
21163;DHT22;10739;52.198;20.908;2024-03-22T04:40:56;7.20;99.90
21163;DHT22;10739;52.198;20.908;2024-03-22T04:43:23;7.30;99.90
21163;DHT22;10739;52.198;20.908;2024-03-22T04:45:50;7.30;99.90
21163;DHT22;10739;52.198;20.908;2024-03-22T04:48:19;7.20;99.90
21163;DHT22;10739;52.198;20.908;2024-03-22T04:50:50;7.20;99.90
21163;DHT22;10739;52.198;20.908;2024-03-22T04:53:20;7.20;99.90
21163;DHT22;10739;52.198;20.908;2024-03-22T04:55:47;7.30;99.90
21163;DHT22;10739;52.198;20.908;2024-03-22T04:58:14;7.20;99.90
21163;DHT22;10739;52.198;20.908;2024-03-22T05:00:42;7.20;99.90
21163;DHT22;10739;52.198;20.908;2024-03-22T05:03:09;7.20;99.90
21163;DHT22;10739;52.198;20.908;2024-03-22T05:05:35;7.20;99.90
21163;DHT22;10739;52.198;20.908;2024-03-22T05:08:02;7.20;99.90
21163;DHT22;10739;52.198;20.908;2024-03-22T05:10:29;7.20;99.90
21163;DHT22;10739;52.198;20.908;2024-03-22T05:12:56;7.20;99.90
21163;DHT22;10739;52.198;20.908;2024-03-22T05:15:23;7.20;99.90
21163;DHT22;10739;52.198;20.908;2024-03-22T05:17:51;7.20;99.90
21163;DHT22;10739;52.198;20.908;2024-03-22T05:20:18;7.30;99.90
21163;DHT22;10739;52.198;20.908;2024-03-22T05:22:44;7.20;99.90
21163;DHT22;10739;52.198;20.908;2024-03-22T05:25:10;7.20;99.90
21163;DHT22;10739;52.198;20.908;2024-03-22T05:27:38;7.20;99.90
21163;DHT22;10739;52.198;20.908;2024-03-22T05:30:04;7.20;99.90
21163;DHT22;10739;52.198;20.908;2024-03-22T05:32:31;7.30;99.90
21163;DHT22;10739;52.198;20.908;2024-03-22T05:34:57;7.30;99.90
21163;DHT22;10739;52.198;20.908;2024-03-22T05:37:23;7.20;99.90
21163;DHT22;10739;52.198;20.908;2024-03-22T05:39:49;7.20;99.90
21163;DHT22;10739;52.198;20.908;2024-03-22T05:42:16;7.20;99.90
21163;DHT22;10739;52.198;20.908;2024-03-22T05:44:44;7.20;99.90
21163;DHT22;10739;52.198;20.908;2024-03-22T05:47:11;7.20;99.90
21163;DHT22;10739;52.198;20.908;2024-03-22T05:49:37;7.20;99.90
21163;DHT22;10739;52.198;20.908;2024-03-22T05:52:03;7.20;99.90
21163;DHT22;10739;52.198;20.908;2024-03-22T05:54:29;7.20;99.90
21163;DHT22;10739;52.198;20.908;2024-03-22T05:56:56;7.10;99.90
21163;DHT22;10739;52.198;20.908;2024-03-22T05:59:22;7.10;99.90
21163;DHT22;10739;52.198;20.908;2024-03-22T06:01:48;7.20;99.90
21163;DHT22;10739;52.198;20.908;2024-03-22T06:04:14;7.10;99.90
21163;DHT22;10739;52.198;20.908;2024-03-22T06:06:40;7.10;99.90
21163;DHT22;10739;52.198;20.908;2024-03-22T06:09:06;7.10;99.90
21163;DHT22;10739;52.198;20.908;2024-03-22T06:11:36;7.10;99.90
21163;DHT22;10739;52.198;20.908;2024-03-22T06:14:03;7.10;99.90
21163;DHT22;10739;52.198;20.908;2024-03-22T06:16:29;7.10;99.90
21163;DHT22;10739;52.198;20.908;2024-03-22T06:18:55;7.10;99.90
21163;DHT22;10739;52.198;20.908;2024-03-22T06:21:22;7.10;99.90
21163;DHT22;10739;52.198;20.908;2024-03-22T06:23:51;7.10;99.90
21163;DHT22;10739;52.198;20.908;2024-03-22T06:26:17;7.20;99.90
21163;DHT22;10739;52.198;20.908;2024-03-22T06:28:44;7.20;99.90
21163;DHT22;10739;52.198;20.908;2024-03-22T06:31:10;7.20;99.90
21163;DHT22;10739;52.198;20.908;2024-03-22T06:33:36;7.30;99.90
21163;DHT22;10739;52.198;20.908;2024-03-22T06:36:02;7.30;99.90
21163;DHT22;10739;52.198;20.908;2024-03-22T06:38:31;7.30;99.90
21163;DHT22;10739;52.198;20.908;2024-03-22T06:40:57;7.30;99.90
21163;DHT22;10739;52.198;20.908;2024-03-22T06:43:25;7.40;99.90
21163;DHT22;10739;52.198;20.908;2024-03-22T06:45:51;7.40;99.90
21163;DHT22;10739;52.198;20.908;2024-03-22T06:48:17;7.40;99.90
21163;DHT22;10739;52.198;20.908;2024-03-22T06:50:43;7.40;99.90
21163;DHT22;10739;52.198;20.908;2024-03-22T06:53:09;7.60;99.90
21163;DHT22;10739;52.198;20.908;2024-03-22T06:55:36;7.60;99.90
21163;DHT22;10739;52.198;20.908;2024-03-22T06:58:02;7.50;99.90
21163;DHT22;10739;52.198;20.908;2024-03-22T07:00:29;7.50;99.90
21163;DHT22;10739;52.198;20.908;2024-03-22T07:02:56;7.40;99.90
21163;DHT22;10739;52.198;20.908;2024-03-22T07:05:22;7.40;99.90
21163;DHT22;10739;52.198;20.908;2024-03-22T07:07:48;7.30;99.90
21163;DHT22;10739;52.198;20.908;2024-03-22T07:10:21;7.30;99.90
21163;DHT22;10739;52.198;20.908;2024-03-22T07:12:49;7.30;99.90
21163;DHT22;10739;52.198;20.908;2024-03-22T07:15:15;7.20;99.90
21163;DHT22;10739;52.198;20.908;2024-03-22T07:17:41;7.20;99.90
21163;DHT22;10739;52.198;20.908;2024-03-22T07:20:08;7.20;99.90
21163;DHT22;10739;52.198;20.908;2024-03-22T07:22:34;7.20;99.90
21163;DHT22;10739;52.198;20.908;2024-03-22T07:25:01;7.20;99.90
21163;DHT22;10739;52.198;20.908;2024-03-22T07:27:27;7.20;99.90
21163;DHT22;10739;52.198;20.908;2024-03-22T07:29:55;7.30;99.90
21163;DHT22;10739;52.198;20.908;2024-03-22T07:32:21;7.30;99.90
21163;DHT22;10739;52.198;20.908;2024-03-22T07:34:48;7.30;99.90
21163;DHT22;10739;52.198;20.908;2024-03-22T07:37:14;7.30;99.90
21163;DHT22;10739;52.198;20.908;2024-03-22T07:39:40;7.30;99.90
21163;DHT22;10739;52.198;20.908;2024-03-22T07:42:06;7.40;99.90
21163;DHT22;10739;52.198;20.908;2024-03-22T07:44:33;7.30;99.90
21163;DHT22;10739;52.198;20.908;2024-03-22T07:46:59;7.40;99.90
21163;DHT22;10739;52.198;20.908;2024-03-22T07:49:25;7.40;99.90
21163;DHT22;10739;52.198;20.908;2024-03-22T07:51:52;7.50;99.90
21163;DHT22;10739;52.198;20.908;2024-03-22T07:54:19;7.50;99.90
21163;DHT22;10739;52.198;20.908;2024-03-22T07:56:46;7.50;99.90
21163;DHT22;10739;52.198;20.908;2024-03-22T07:59:12;7.60;99.90
21163;DHT22;10739;52.198;20.908;2024-03-22T08:01:38;7.60;99.90
21163;DHT22;10739;52.198;20.908;2024-03-22T08:04:04;7.50;99.90
21163;DHT22;10739;52.198;20.908;2024-03-22T08:06:30;7.50;99.90
21163;DHT22;10739;52.198;20.908;2024-03-22T08:08:56;7.50;99.90
21163;DHT22;10739;52.198;20.908;2024-03-22T08:11:22;7.60;99.90
21163;DHT22;10739;52.198;20.908;2024-03-22T08:13:49;7.60;99.90
21163;DHT22;10739;52.198;20.908;2024-03-22T08:16:15;7.40;99.90
21163;DHT22;10739;52.198;20.908;2024-03-22T08:18:41;7.60;99.90
21163;DHT22;10739;52.198;20.908;2024-03-22T08:21:07;7.60;99.90
21163;DHT22;10739;52.198;20.908;2024-03-22T08:23:33;7.70;99.90
21163;DHT22;10739;52.198;20.908;2024-03-22T08:25:59;7.80;99.90
21163;DHT22;10739;52.198;20.908;2024-03-22T08:28:26;7.80;99.90
21163;DHT22;10739;52.198;20.908;2024-03-22T08:30:52;7.70;99.90
21163;DHT22;10739;52.198;20.908;2024-03-22T08:33:18;7.70;99.90
21163;DHT22;10739;52.198;20.908;2024-03-22T08:35:45;7.70;99.90
21163;DHT22;10739;52.198;20.908;2024-03-22T08:38:11;7.80;99.90
21163;DHT22;10739;52.198;20.908;2024-03-22T08:40:40;7.90;99.90
21163;DHT22;10739;52.198;20.908;2024-03-22T08:43:06;8.00;99.90
21163;DHT22;10739;52.198;20.908;2024-03-22T08:45:36;8.10;99.90
21163;DHT22;10739;52.198;20.908;2024-03-22T08:48:02;8.10;99.90
21163;DHT22;10739;52.198;20.908;2024-03-22T08:50:28;8.10;99.90
21163;DHT22;10739;52.198;20.908;2024-03-22T08:52:54;8.10;99.90
21163;DHT22;10739;52.198;20.908;2024-03-22T08:55:20;8.10;99.90
21163;DHT22;10739;52.198;20.908;2024-03-22T08:57:46;8.00;99.90
21163;DHT22;10739;52.198;20.908;2024-03-22T09:00:12;8.10;99.90
21163;DHT22;10739;52.198;20.908;2024-03-22T09:02:39;8.00;99.90
21163;DHT22;10739;52.198;20.908;2024-03-22T09:05:06;8.00;99.90
21163;DHT22;10739;52.198;20.908;2024-03-22T09:07:35;8.00;99.90
21163;DHT22;10739;52.198;20.908;2024-03-22T09:10:01;8.00;99.90
21163;DHT22;10739;52.198;20.908;2024-03-22T09:12:27;8.00;99.90
21163;DHT22;10739;52.198;20.908;2024-03-22T09:14:53;8.00;99.90
21163;DHT22;10739;52.198;20.908;2024-03-22T09:17:23;8.00;99.90
21163;DHT22;10739;52.198;20.908;2024-03-22T09:19:55;8.10;99.90
21163;DHT22;10739;52.198;20.908;2024-03-22T09:22:21;8.20;99.90
21163;DHT22;10739;52.198;20.908;2024-03-22T09:24:47;8.30;99.90
21163;DHT22;10739;52.198;20.908;2024-03-22T09:27:13;8.40;99.90
21163;DHT22;10739;52.198;20.908;2024-03-22T09:29:39;8.40;99.90
21163;DHT22;10739;52.198;20.908;2024-03-22T09:32:05;8.30;99.90
21163;DHT22;10739;52.198;20.908;2024-03-22T09:34:32;8.30;99.90
21163;DHT22;10739;52.198;20.908;2024-03-22T09:36:58;8.40;99.90
21163;DHT22;10739;52.198;20.908;2024-03-22T09:39:25;8.40;99.90
21163;DHT22;10739;52.198;20.908;2024-03-22T09:41:57;8.50;99.90
21163;DHT22;10739;52.198;20.908;2024-03-22T09:44:27;8.30;99.90
21163;DHT22;10739;52.198;20.908;2024-03-22T09:46:53;8.30;99.90
21163;DHT22;10739;52.198;20.908;2024-03-22T09:49:21;8.30;99.90
21163;DHT22;10739;52.198;20.908;2024-03-22T09:51:49;8.30;99.90
21163;DHT22;10739;52.198;20.908;2024-03-22T09:54:17;8.30;99.90
21163;DHT22;10739;52.198;20.908;2024-03-22T09:56:44;8.20;99.90
21163;DHT22;10739;52.198;20.908;2024-03-22T09:59:13;8.00;99.90
21163;DHT22;10739;52.198;20.908;2024-03-22T10:01:40;7.90;99.90
21163;DHT22;10739;52.198;20.908;2024-03-22T10:04:07;7.90;99.90
21163;DHT22;10739;52.198;20.908;2024-03-22T10:06:35;8.00;99.90
21163;DHT22;10739;52.198;20.908;2024-03-22T10:09:02;8.00;99.90
21163;DHT22;10739;52.198;20.908;2024-03-22T10:11:30;7.90;99.90
21163;DHT22;10739;52.198;20.908;2024-03-22T10:13:56;7.90;99.90
21163;DHT22;10739;52.198;20.908;2024-03-22T10:16:23;7.90;99.90
21163;DHT22;10739;52.198;20.908;2024-03-22T10:18:49;7.90;99.90
21163;DHT22;10739;52.198;20.908;2024-03-22T10:21:18;7.90;99.90
21163;DHT22;10739;52.198;20.908;2024-03-22T10:23:44;8.00;99.90
21163;DHT22;10739;52.198;20.908;2024-03-22T10:26:14;8.00;99.90
21163;DHT22;10739;52.198;20.908;2024-03-22T10:28:47;8.00;99.90
21163;DHT22;10739;52.198;20.908;2024-03-22T10:31:13;7.90;99.90
21163;DHT22;10739;52.198;20.908;2024-03-22T10:33:44;7.90;99.90
21163;DHT22;10739;52.198;20.908;2024-03-22T10:36:11;7.90;99.90
21163;DHT22;10739;52.198;20.908;2024-03-22T10:38:39;7.90;99.90
21163;DHT22;10739;52.198;20.908;2024-03-22T10:41:06;8.00;99.90
21163;DHT22;10739;52.198;20.908;2024-03-22T10:43:32;8.10;99.90
21163;DHT22;10739;52.198;20.908;2024-03-22T10:46:01;8.10;99.90
21163;DHT22;10739;52.198;20.908;2024-03-22T10:48:32;8.20;99.90
21163;DHT22;10739;52.198;20.908;2024-03-22T10:51:00;8.30;99.90
21163;DHT22;10739;52.198;20.908;2024-03-22T10:53:30;8.30;99.90
21163;DHT22;10739;52.198;20.908;2024-03-22T10:55:59;8.40;99.90
21163;DHT22;10739;52.198;20.908;2024-03-22T10:58:30;8.50;99.90
21163;DHT22;10739;52.198;20.908;2024-03-22T11:00:57;8.60;99.90
21163;DHT22;10739;52.198;20.908;2024-03-22T11:03:25;8.80;99.90
21163;DHT22;10739;52.198;20.908;2024-03-22T11:05:56;8.80;99.90
21163;DHT22;10739;52.198;20.908;2024-03-22T11:08:25;8.80;99.90
21163;DHT22;10739;52.198;20.908;2024-03-22T11:10:52;8.80;99.90
21163;DHT22;10739;52.198;20.908;2024-03-22T11:13:19;8.70;99.90
21163;DHT22;10739;52.198;20.908;2024-03-22T11:15:52;8.80;99.90
21163;DHT22;10739;52.198;20.908;2024-03-22T11:18:18;8.70;99.90
21163;DHT22;10739;52.198;20.908;2024-03-22T11:20:45;8.80;99.90
21163;DHT22;10739;52.198;20.908;2024-03-22T11:23:11;8.70;99.90
21163;DHT22;10739;52.198;20.908;2024-03-22T11:25:37;8.80;99.90
21163;DHT22;10739;52.198;20.908;2024-03-22T11:28:03;8.80;99.90
21163;DHT22;10739;52.198;20.908;2024-03-22T11:30:32;8.80;99.90
21163;DHT22;10739;52.198;20.908;2024-03-22T11:33:02;8.80;99.90
21163;DHT22;10739;52.198;20.908;2024-03-22T11:35:30;8.90;99.90
21163;DHT22;10739;52.198;20.908;2024-03-22T11:37:56;8.90;99.90
21163;DHT22;10739;52.198;20.908;2024-03-22T11:40:26;9.00;99.90
21163;DHT22;10739;52.198;20.908;2024-03-22T11:42:54;9.00;99.90
21163;DHT22;10739;52.198;20.908;2024-03-22T11:45:21;9.00;99.90
21163;DHT22;10739;52.198;20.908;2024-03-22T11:47:49;9.00;99.90
21163;DHT22;10739;52.198;20.908;2024-03-22T11:50:15;9.00;99.90
21163;DHT22;10739;52.198;20.908;2024-03-22T11:52:43;9.10;99.90
21163;DHT22;10739;52.198;20.908;2024-03-22T11:55:13;9.10;99.90
21163;DHT22;10739;52.198;20.908;2024-03-22T11:57:41;9.20;99.90
21163;DHT22;10739;52.198;20.908;2024-03-22T12:00:08;9.40;99.90
21163;DHT22;10739;52.198;20.908;2024-03-22T12:02:38;9.60;99.90
21163;DHT22;10739;52.198;20.908;2024-03-22T12:05:05;9.50;99.90
21163;DHT22;10739;52.198;20.908;2024-03-22T12:07:32;9.50;99.90
21163;DHT22;10739;52.198;20.908;2024-03-22T12:09:58;9.50;99.90
21163;DHT22;10739;52.198;20.908;2024-03-22T12:12:24;9.50;99.90
21163;DHT22;10739;52.198;20.908;2024-03-22T12:14:52;9.50;99.90
21163;DHT22;10739;52.198;20.908;2024-03-22T12:17:18;9.50;99.90
21163;DHT22;10739;52.198;20.908;2024-03-22T12:19:45;9.50;99.90
21163;DHT22;10739;52.198;20.908;2024-03-22T12:22:11;9.50;99.90
21163;DHT22;10739;52.198;20.908;2024-03-22T12:24:37;9.50;99.90
21163;DHT22;10739;52.198;20.908;2024-03-22T12:27:04;9.40;99.90
21163;DHT22;10739;52.198;20.908;2024-03-22T12:29:33;9.50;99.90
21163;DHT22;10739;52.198;20.908;2024-03-22T12:32:01;9.50;99.90
21163;DHT22;10739;52.198;20.908;2024-03-22T12:34:30;9.50;99.90
21163;DHT22;10739;52.198;20.908;2024-03-22T12:36:58;9.60;99.90
21163;DHT22;10739;52.198;20.908;2024-03-22T12:39:25;9.60;99.90
21163;DHT22;10739;52.198;20.908;2024-03-22T12:41:51;9.70;99.90
21163;DHT22;10739;52.198;20.908;2024-03-22T12:44:18;9.80;99.90
21163;DHT22;10739;52.198;20.908;2024-03-22T12:46:44;9.90;99.90
21163;DHT22;10739;52.198;20.908;2024-03-22T12:49:11;9.90;99.90
21163;DHT22;10739;52.198;20.908;2024-03-22T12:51:38;9.90;99.90
21163;DHT22;10739;52.198;20.908;2024-03-22T12:54:04;9.90;99.90
21163;DHT22;10739;52.198;20.908;2024-03-22T12:56:31;10.00;99.90
21163;DHT22;10739;52.198;20.908;2024-03-22T12:58:58;10.00;99.90
21163;DHT22;10739;52.198;20.908;2024-03-22T13:01:25;9.90;99.90
21163;DHT22;10739;52.198;20.908;2024-03-22T13:03:51;9.90;99.90
21163;DHT22;10739;52.198;20.908;2024-03-22T13:06:18;9.90;99.90
21163;DHT22;10739;52.198;20.908;2024-03-22T13:08:44;9.80;99.90
21163;DHT22;10739;52.198;20.908;2024-03-22T13:11:10;9.80;99.90
21163;DHT22;10739;52.198;20.908;2024-03-22T13:13:36;10.00;99.90
21163;DHT22;10739;52.198;20.908;2024-03-22T13:16:03;10.00;99.90
21163;DHT22;10739;52.198;20.908;2024-03-22T13:18:30;10.00;99.90
21163;DHT22;10739;52.198;20.908;2024-03-22T13:20:56;9.90;99.90
21163;DHT22;10739;52.198;20.908;2024-03-22T13:23:22;10.00;99.90
21163;DHT22;10739;52.198;20.908;2024-03-22T13:25:49;10.00;99.90
21163;DHT22;10739;52.198;20.908;2024-03-22T13:28:15;10.10;99.90
21163;DHT22;10739;52.198;20.908;2024-03-22T13:30:46;10.10;99.90
21163;DHT22;10739;52.198;20.908;2024-03-22T13:33:12;10.10;99.90
21163;DHT22;10739;52.198;20.908;2024-03-22T13:35:38;10.20;99.90
21163;DHT22;10739;52.198;20.908;2024-03-22T13:38:07;10.20;99.90
21163;DHT22;10739;52.198;20.908;2024-03-22T13:40:39;10.20;99.90
21163;DHT22;10739;52.198;20.908;2024-03-22T13:43:06;10.20;99.90
21163;DHT22;10739;52.198;20.908;2024-03-22T13:45:33;10.20;99.90
21163;DHT22;10739;52.198;20.908;2024-03-22T13:48:10;10.30;99.90
21163;DHT22;10739;52.198;20.908;2024-03-22T13:50:38;10.30;99.90
21163;DHT22;10739;52.198;20.908;2024-03-22T13:53:04;10.30;99.90
21163;DHT22;10739;52.198;20.908;2024-03-22T13:55:31;10.40;99.90
21163;DHT22;10739;52.198;20.908;2024-03-22T13:57:58;10.40;99.90
21163;DHT22;10739;52.198;20.908;2024-03-22T14:00:24;10.40;99.90
21163;DHT22;10739;52.198;20.908;2024-03-22T14:02:51;10.40;99.90
21163;DHT22;10739;52.198;20.908;2024-03-22T14:05:22;10.40;99.90
21163;DHT22;10739;52.198;20.908;2024-03-22T14:07:53;10.40;99.90
21163;DHT22;10739;52.198;20.908;2024-03-22T14:10:19;10.30;99.90
21163;DHT22;10739;52.198;20.908;2024-03-22T14:12:45;10.30;99.90
21163;DHT22;10739;52.198;20.908;2024-03-22T14:15:13;10.20;99.90
21163;DHT22;10739;52.198;20.908;2024-03-22T14:17:39;10.10;99.90
21163;DHT22;10739;52.198;20.908;2024-03-22T14:20:06;10.10;99.90
21163;DHT22;10739;52.198;20.908;2024-03-22T14:22:40;10.10;99.90
21163;DHT22;10739;52.198;20.908;2024-03-22T14:25:08;10.10;99.90
21163;DHT22;10739;52.198;20.908;2024-03-22T14:27:38;10.10;99.90
21163;DHT22;10739;52.198;20.908;2024-03-22T14:30:05;10.10;99.90
21163;DHT22;10739;52.198;20.908;2024-03-22T14:32:34;10.20;99.90
21163;DHT22;10739;52.198;20.908;2024-03-22T14:35:00;10.20;99.90
21163;DHT22;10739;52.198;20.908;2024-03-22T14:37:27;10.30;99.90
21163;DHT22;10739;52.198;20.908;2024-03-22T14:39:53;10.30;99.90
21163;DHT22;10739;52.198;20.908;2024-03-22T14:42:19;10.30;99.90
21163;DHT22;10739;52.198;20.908;2024-03-22T14:44:45;10.20;99.90
21163;DHT22;10739;52.198;20.908;2024-03-22T14:47:12;10.20;99.90
21163;DHT22;10739;52.198;20.908;2024-03-22T14:49:38;10.20;99.90
21163;DHT22;10739;52.198;20.908;2024-03-22T14:52:06;10.20;99.90
21163;DHT22;10739;52.198;20.908;2024-03-22T14:54:32;10.20;99.90
21163;DHT22;10739;52.198;20.908;2024-03-22T14:56:58;10.20;99.90
21163;DHT22;10739;52.198;20.908;2024-03-22T14:59:28;10.20;99.90
21163;DHT22;10739;52.198;20.908;2024-03-22T15:01:54;10.20;99.90
21163;DHT22;10739;52.198;20.908;2024-03-22T15:04:21;10.20;99.90
21163;DHT22;10739;52.198;20.908;2024-03-22T15:06:48;10.10;99.90
21163;DHT22;10739;52.198;20.908;2024-03-22T15:09:17;10.10;99.90
21163;DHT22;10739;52.198;20.908;2024-03-22T15:11:45;10.10;99.90
21163;DHT22;10739;52.198;20.908;2024-03-22T15:14:12;10.10;99.90
21163;DHT22;10739;52.198;20.908;2024-03-22T15:16:40;10.10;99.90
21163;DHT22;10739;52.198;20.908;2024-03-22T15:19:09;9.90;99.90
21163;DHT22;10739;52.198;20.908;2024-03-22T15:21:36;9.70;99.90
21163;DHT22;10739;52.198;20.908;2024-03-22T15:24:03;9.50;99.90
21163;DHT22;10739;52.198;20.908;2024-03-22T15:26:30;9.40;99.90
21163;DHT22;10739;52.198;20.908;2024-03-22T15:28:57;9.30;99.90